createdAt,value
2023-09-05T00:00:27.718Z,76.30
2023-09-05T00:02:55.998Z,76.50
2023-09-05T00:05:24.337Z,76.20
2023-09-05T00:07:53.962Z,75.90
2023-09-05T00:10:22.546Z,76.50
2023-09-05T00:12:52.528Z,76.60
2023-09-05T00:15:20.604Z,76.50
2023-09-05T00:17:48.611Z,76.60
2023-09-05T00:20:17.158Z,76.50
2023-09-05T00:22:45.313Z,76.50
2023-09-05T00:25:16.488Z,77.30
2023-09-05T00:27:44.464Z,76.80
2023-09-05T00:30:15.192Z,76.30
2023-09-05T00:32:43.241Z,76.50
2023-09-05T00:35:12.540Z,76.60
2023-09-05T00:37:40.614Z,76.70
2023-09-05T00:40:09.936Z,76.60
2023-09-05T00:42:39.240Z,77.00
2023-09-05T00:45:08.054Z,77.10
2023-09-05T00:47:36.038Z,77.10
2023-09-05T00:50:06.964Z,77.90
2023-09-05T00:52:37.295Z,76.50
2023-09-05T00:55:06.346Z,76.70
2023-09-05T00:57:34.819Z,77.30
2023-09-05T01:00:06.421Z,77.10
2023-09-05T01:02:35.218Z,76.90
2023-09-05T01:05:05.508Z,77.00
2023-09-05T01:07:42.463Z,77.00
2023-09-05T01:10:16.943Z,77.60
2023-09-05T01:12:44.911Z,77.60
2023-09-05T01:15:14.335Z,77.60
2023-09-05T01:17:45.188Z,77.80
2023-09-05T01:20:17.314Z,78.60
2023-09-05T01:22:54.854Z,78.90
2023-09-05T01:25:24.943Z,78.90
2023-09-05T01:27:52.920Z,77.70
2023-09-05T01:30:21.257Z,78.20
2023-09-05T01:32:49.490Z,78.10
2023-09-05T01:35:17.643Z,78.20
2023-09-05T01:37:45.661Z,78.20
2023-09-05T01:40:14.814Z,78.20
2023-09-05T01:42:44.136Z,78.50
2023-09-05T01:45:12.354Z,78.60
2023-09-05T01:47:40.333Z,78.50
2023-09-05T01:50:09.072Z,78.60
2023-09-05T01:52:37.010Z,78.90
2023-09-05T01:55:05.567Z,78.70
2023-09-05T01:57:33.314Z,78.80
2023-09-05T02:00:02.693Z,78.80
2023-09-05T02:02:30.925Z,79.20
2023-09-05T02:04:58.884Z,79.00
2023-09-05T02:07:28.310Z,79.00
2023-09-05T02:09:56.310Z,80.50
2023-09-05T02:12:24.290Z,80.70
2023-09-05T02:14:52.230Z,80.30
2023-09-05T02:17:22.160Z,81.40
2023-09-05T02:19:50.115Z,80.10
2023-09-05T02:22:18.069Z,80.00
2023-09-05T02:24:46.038Z,79.50
2023-09-05T02:27:13.963Z,79.50
2023-09-05T02:29:41.905Z,79.70
2023-09-05T02:32:10.564Z,79.80
2023-09-05T02:34:39.871Z,79.60
2023-09-05T02:37:07.876Z,79.70
2023-09-05T02:39:35.732Z,79.60
2023-09-05T02:42:04.371Z,79.70
2023-09-05T02:44:32.388Z,79.60
2023-09-05T02:47:00.412Z,79.80
2023-09-05T02:49:31.196Z,79.60
2023-09-05T02:52:00.717Z,79.50
2023-09-05T02:54:29.569Z,81.20
2023-09-05T02:56:57.647Z,81.20
2023-09-05T02:59:26.094Z,80.90
2023-09-05T03:01:54.126Z,80.60
2023-09-05T03:04:22.197Z,80.40
2023-09-05T03:06:50.152Z,80.50
2023-09-05T03:09:19.542Z,80.60
2023-09-05T03:11:47.512Z,80.40
2023-09-05T03:14:15.447Z,80.30
2023-09-05T03:16:43.402Z,80.20
2023-09-05T03:19:13.107Z,80.30
2023-09-05T03:21:41.129Z,80.30
2023-09-05T03:24:11.555Z,80.20
2023-09-05T03:26:40.890Z,80.30
2023-09-05T03:29:09.501Z,80.50
2023-09-05T03:31:37.589Z,81.20
2023-09-05T03:34:05.669Z,80.40
2023-09-05T03:36:34.222Z,80.50
2023-09-05T03:39:02.284Z,80.50
2023-09-05T03:41:30.497Z,80.20
2023-09-05T03:44:00.832Z,80.30
2023-09-05T03:46:28.821Z,80.80
2023-09-05T03:48:58.741Z,80.50
2023-09-05T03:51:28.925Z,80.60
2023-09-05T03:53:59.888Z,80.60
2023-09-05T03:56:28.566Z,80.20
2023-09-05T03:58:56.950Z,80.80
2023-09-05T04:01:26.815Z,81.00
2023-09-05T04:03:55.164Z,81.10
2023-09-05T04:06:23.176Z,81.10
2023-09-05T04:08:51.131Z,81.10
2023-09-05T04:11:19.087Z,81.10
2023-09-05T04:13:47.075Z,81.00
2023-09-05T04:16:15.113Z,79.90
2023-09-05T04:18:44.562Z,80.80
2023-09-05T04:21:13.030Z,81.00
2023-09-05T04:23:41.073Z,81.20
2023-09-05T04:26:09.253Z,81.20
2023-09-05T04:28:39.469Z,81.10
2023-09-05T04:31:07.815Z,81.10
2023-09-05T04:33:39.134Z,81.20
2023-09-05T04:36:13.412Z,81.70
2023-09-05T04:38:44.873Z,81.70
2023-09-05T04:41:13.197Z,81.50
2023-09-05T04:43:41.148Z,81.10
2023-09-05T04:46:10.870Z,81.30
2023-09-05T04:48:38.888Z,81.30
2023-09-05T04:51:06.917Z,81.40
2023-09-05T04:53:36.191Z,81.60
2023-09-05T04:56:04.673Z,81.70
2023-09-05T04:58:33.030Z,81.60
2023-09-05T05:01:03.710Z,81.70
2023-09-05T05:03:32.248Z,81.80
2023-09-05T05:06:00.828Z,81.60
2023-09-05T05:08:28.885Z,81.40
2023-09-05T05:10:58.734Z,82.50
2023-09-05T05:13:26.636Z,81.50
2023-09-05T05:15:54.555Z,81.70
2023-09-05T05:18:22.524Z,82.20
2023-09-05T05:20:50.469Z,82.10
2023-09-05T05:23:20.312Z,83.00
2023-09-05T05:25:48.694Z,82.10
2023-09-05T05:28:17.990Z,82.30
2023-09-05T05:30:46.111Z,82.70
2023-09-05T05:33:14.105Z,82.50
2023-09-05T05:35:42.524Z,82.70
2023-09-05T05:38:10.573Z,82.90
2023-09-05T05:40:38.554Z,82.80
2023-09-05T05:43:06.461Z,83.10
2023-09-05T05:45:35.746Z,83.20
2023-09-05T05:48:03.841Z,84.30
2023-09-05T05:50:31.842Z,83.40
2023-09-05T05:52:59.920Z,83.60
2023-09-05T05:55:27.985Z,83.90
2023-09-05T05:57:56.237Z,83.80
2023-09-05T06:00:25.234Z,83.70
2023-09-05T06:02:56.865Z,84.10
2023-09-05T06:05:25.492Z,84.40
2023-09-05T06:07:53.472Z,84.50
2023-09-05T06:10:21.670Z,84.00
2023-09-05T06:12:49.670Z,84.20
2023-09-05T06:15:17.762Z,84.40
2023-09-05T06:17:45.744Z,84.60
2023-09-05T06:20:15.281Z,85.10
2023-09-05T06:22:43.225Z,85.70
2023-09-05T06:25:11.260Z,85.90
2023-09-05T06:27:39.749Z,86.00
2023-09-05T06:30:09.195Z,86.20
2023-09-05T06:32:37.182Z,86.70
2023-09-05T06:35:06.230Z,86.20
2023-09-05T06:37:35.993Z,86.70
2023-09-05T06:40:06.227Z,86.80
2023-09-05T06:42:34.171Z,86.80
2023-09-05T06:45:02.104Z,86.70
2023-09-05T06:47:30.941Z,88.30
2023-09-05T06:50:04.247Z,86.90
2023-09-05T06:52:32.214Z,87.50
2023-09-05T06:55:01.703Z,87.20
2023-09-05T06:57:32.949Z,87.20
2023-09-05T07:00:01.208Z,86.00
2023-09-05T07:02:29.252Z,88.10
2023-09-05T07:04:57.590Z,86.90
2023-09-05T07:07:25.642Z,86.80
2023-09-05T07:09:54.481Z,86.40
2023-09-05T07:12:24.153Z,86.20
2023-09-05T07:14:54.211Z,86.00
2023-09-05T07:17:22.143Z,85.90
2023-09-05T07:19:50.259Z,85.10
2023-09-05T07:22:18.346Z,84.60
2023-09-05T07:24:46.388Z,84.30
2023-09-05T07:27:15.656Z,83.60
2023-09-05T07:29:45.002Z,83.40
2023-09-05T07:32:12.908Z,83.00
2023-09-05T07:34:40.900Z,82.60
2023-09-05T07:37:09.032Z,82.20
2023-09-05T07:39:37.094Z,81.90
2023-09-05T07:42:06.263Z,81.40
2023-09-05T07:44:34.219Z,81.20
2023-09-05T07:47:03.473Z,80.40
2023-09-05T07:49:32.368Z,79.60
2023-09-05T07:52:00.945Z,79.60
2023-09-05T07:54:29.076Z,79.10
2023-09-05T07:56:56.960Z,78.10
2023-09-05T07:59:25.453Z,78.30
2023-09-05T08:01:53.413Z,77.80
2023-09-05T08:04:22.921Z,77.70
2023-09-05T08:06:51.165Z,76.70
2023-09-05T08:09:19.171Z,76.80
2023-09-05T08:11:47.362Z,76.00
2023-09-05T08:14:15.267Z,76.20
2023-09-05T08:16:43.267Z,75.90
2023-09-05T08:19:11.129Z,75.10
2023-09-05T08:21:40.471Z,75.20
2023-09-05T08:24:09.290Z,74.40
2023-09-05T08:26:37.433Z,74.50
2023-09-05T08:29:07.735Z,74.10
2023-09-05T08:31:35.844Z,74.10
2023-09-05T08:34:03.926Z,73.80
2023-09-05T08:36:33.016Z,74.10
2023-09-05T08:39:02.900Z,74.00
2023-09-05T08:41:31.718Z,73.90
2023-09-05T08:44:00.473Z,73.70
2023-09-05T08:46:30.419Z,73.60
2023-09-05T08:48:58.975Z,73.90
2023-09-05T08:51:34.078Z,74.20
2023-09-05T08:54:05.679Z,72.70
2023-09-05T08:56:34.007Z,72.60
2023-09-05T08:59:03.282Z,72.70
2023-09-05T09:01:35.267Z,72.70
2023-09-05T09:04:04.341Z,72.40
2023-09-05T09:06:32.378Z,72.90
2023-09-05T09:09:00.786Z,72.00
2023-09-05T09:11:33.682Z,71.50
2023-09-05T09:14:02.231Z,70.70
2023-09-05T09:16:30.837Z,70.90
2023-09-05T09:19:03.989Z,70.90
2023-09-05T09:21:33.079Z,71.10
2023-09-05T09:24:01.643Z,70.40
2023-09-05T09:26:31.170Z,70.50
2023-09-05T09:28:59.257Z,71.00
2023-09-05T09:31:30.835Z,71.40
2023-09-05T09:33:59.651Z,71.50
2023-09-05T09:36:35.347Z,70.80
2023-09-05T09:39:08.927Z,71.10
2023-09-05T09:41:43.462Z,69.90
2023-09-05T09:44:11.422Z,69.60
2023-09-05T09:46:40.645Z,69.50
2023-09-05T09:49:11.542Z,70.30
2023-09-05T09:51:41.759Z,69.70
2023-09-05T09:54:14.396Z,70.50
2023-09-05T09:56:44.900Z,69.80
2023-09-05T09:59:14.844Z,69.70
2023-09-05T10:01:43.663Z,69.90
2023-09-05T10:04:12.118Z,68.90
2023-09-05T10:06:40.375Z,67.80
2023-09-05T10:09:09.761Z,67.70
2023-09-05T10:11:38.240Z,66.90
2023-09-05T10:14:08.964Z,66.80
2023-09-05T10:16:39.136Z,65.70
2023-09-05T10:19:09.921Z,65.70
2023-09-05T10:21:39.525Z,64.70
2023-09-05T10:24:08.700Z,64.30
2023-09-05T10:26:36.808Z,64.00
2023-09-05T10:29:43.580Z,64.00
2023-09-05T10:32:12.599Z,63.60
2023-09-05T10:35:03.679Z,63.90
2023-09-05T10:37:52.972Z,63.40
2023-09-05T10:40:34.883Z,62.70
2023-09-05T10:43:04.789Z,62.70
2023-09-05T10:45:35.839Z,63.00
2023-09-05T10:48:09.065Z,62.60
2023-09-05T10:51:21.724Z,62.50
2023-09-05T10:53:49.863Z,61.30
2023-09-05T10:56:40.201Z,61.50
2023-09-05T10:59:11.896Z,60.90
2023-09-05T11:01:48.972Z,60.10
2023-09-05T11:04:27.876Z,60.40
2023-09-05T11:07:04.535Z,61.10
2023-09-05T11:09:42.354Z,60.70
2023-09-05T11:12:11.330Z,60.40
2023-09-05T11:14:39.946Z,61.90
2023-09-05T11:17:13.817Z,61.50
2023-09-05T11:19:43.610Z,59.90
2023-09-05T11:22:16.460Z,60.40
2023-09-05T11:24:49.558Z,59.80
2023-09-05T11:27:22.237Z,59.60
2023-09-05T11:29:51.060Z,59.50
2023-09-05T11:32:20.697Z,59.00
2023-09-05T11:34:49.519Z,58.40
2023-09-05T11:37:19.457Z,58.50
2023-09-05T11:39:49.002Z,57.70
2023-09-05T11:42:25.028Z,57.60
2023-09-05T11:44:55.952Z,57.40
2023-09-05T11:47:29.727Z,58.20
2023-09-05T11:49:59.834Z,58.10
2023-09-05T11:52:30.868Z,57.80
2023-09-05T11:54:59.656Z,58.70
2023-09-05T11:57:27.824Z,57.50
2023-09-05T11:59:55.902Z,57.50
2023-09-05T12:02:25.380Z,56.80
2023-09-05T12:04:53.387Z,56.40
2023-09-05T12:07:25.534Z,56.10
2023-09-05T12:09:56.564Z,55.80
2023-09-05T12:12:24.591Z,56.50
2023-09-05T12:14:54.807Z,56.50
2023-09-05T12:17:25.564Z,56.00
2023-09-05T12:19:55.277Z,55.90
2023-09-05T12:22:25.145Z,55.10
2023-09-05T12:25:15.184Z,55.10
2023-09-05T12:27:46.000Z,54.60
2023-09-05T12:30:31.399Z,55.00
2023-09-05T12:33:02.980Z,54.50
2023-09-05T12:35:32.830Z,54.40
2023-09-05T12:38:02.787Z,54.80
2023-09-05T12:40:34.428Z,54.60
2023-09-05T12:43:03.186Z,54.10
2023-09-05T12:45:32.180Z,54.80
2023-09-05T12:48:01.851Z,53.80
2023-09-05T12:50:33.869Z,53.40
2023-09-05T12:53:02.627Z,52.40
2023-09-05T12:55:33.456Z,53.00
2023-09-05T12:58:04.086Z,53.20
2023-09-05T13:00:32.238Z,53.10
2023-09-05T13:03:02.090Z,52.90
2023-09-05T13:05:31.311Z,53.00
2023-09-05T13:07:59.836Z,52.00
2023-09-05T13:10:28.990Z,52.90
2023-09-05T13:13:00.196Z,52.70
2023-09-05T13:15:30.600Z,52.70
2023-09-05T13:17:59.121Z,52.50
2023-09-05T13:20:32.654Z,52.30
2023-09-05T13:23:01.281Z,51.70
2023-09-05T13:25:34.780Z,52.10
2023-09-05T13:28:05.608Z,52.40
2023-09-05T13:30:33.854Z,52.90
2023-09-05T13:33:01.967Z,53.30
2023-09-05T13:35:32.764Z,52.80
2023-09-05T13:38:00.860Z,53.90
2023-09-05T13:40:29.818Z,53.10
2023-09-05T13:42:59.381Z,52.80
2023-09-05T13:45:28.248Z,53.10
2023-09-05T13:47:56.982Z,52.30
2023-09-05T13:50:25.376Z,52.40
2023-09-05T13:52:54.854Z,51.90
2023-09-05T13:55:22.823Z,51.60
2023-09-05T13:57:52.182Z,51.00
2023-09-05T14:00:23.252Z,51.20
2023-09-05T14:02:51.646Z,50.90
2023-09-05T14:05:19.815Z,50.60
2023-09-05T14:07:47.846Z,51.00
2023-09-05T14:10:17.453Z,51.00
2023-09-05T14:12:45.769Z,50.70
2023-09-05T14:15:14.003Z,51.00
2023-09-05T14:17:42.874Z,50.80
2023-09-05T14:20:12.418Z,50.60
2023-09-05T14:22:40.467Z,50.80
2023-09-05T14:25:09.784Z,50.50
2023-09-05T14:27:39.346Z,50.40
2023-09-05T14:30:08.869Z,50.10
2023-09-05T14:32:36.993Z,50.90
2023-09-05T14:35:05.277Z,50.60
2023-09-05T14:37:33.211Z,49.70
2023-09-05T14:40:01.194Z,49.30
2023-09-05T14:42:35.904Z,49.00
2023-09-05T14:45:08.715Z,48.80
2023-09-05T14:47:37.030Z,48.40
2023-09-05T14:50:05.565Z,48.10
2023-09-05T14:52:35.840Z,47.80
2023-09-05T14:55:04.060Z,47.30
2023-09-05T14:57:32.088Z,47.70
2023-09-05T15:00:03.579Z,47.70
2023-09-05T15:02:33.176Z,47.60
2023-09-05T15:05:01.236Z,47.60
2023-09-05T15:07:29.430Z,47.40
2023-09-05T15:09:57.576Z,47.40
2023-09-05T15:12:25.702Z,47.10
2023-09-05T15:14:53.708Z,47.00
2023-09-05T15:17:21.693Z,46.70
2023-09-05T15:19:50.991Z,46.80
2023-09-05T15:22:18.943Z,46.30
2023-09-05T15:24:47.013Z,46.00
2023-09-05T15:27:15.171Z,46.00
2023-09-05T15:29:43.387Z,45.10
2023-09-05T15:32:11.428Z,44.60
2023-09-05T15:34:39.848Z,44.80
2023-09-05T15:37:11.376Z,44.50
2023-09-05T15:39:39.481Z,43.90
2023-09-05T15:42:09.516Z,44.50
2023-09-05T15:44:37.962Z,44.00
2023-09-05T15:47:06.271Z,43.90
2023-09-05T15:49:34.367Z,43.70
2023-09-05T15:52:04.551Z,43.60
2023-09-05T15:54:34.107Z,43.30
2023-09-05T15:57:02.381Z,43.50
2023-09-05T15:59:30.632Z,43.60
2023-09-05T16:01:58.719Z,43.80
2023-09-05T16:04:26.817Z,44.20
2023-09-05T16:06:54.869Z,44.40
2023-09-05T16:09:22.922Z,44.90
2023-09-05T16:11:52.245Z,44.90
2023-09-05T16:14:20.182Z,45.20
2023-09-05T16:16:48.845Z,45.40
2023-09-05T16:19:17.005Z,45.60
2023-09-05T16:21:45.852Z,45.80
2023-09-05T16:24:13.952Z,46.00
2023-09-05T16:26:44.373Z,45.90
2023-09-05T16:29:13.817Z,46.00
2023-09-05T16:31:42.342Z,46.20
2023-09-05T16:34:10.574Z,46.60
2023-09-05T16:36:39.476Z,46.70
2023-09-05T16:39:08.258Z,46.90
2023-09-05T16:41:36.268Z,47.50
2023-09-05T16:44:04.347Z,47.50
2023-09-05T16:46:34.114Z,47.70
2023-09-05T16:49:02.167Z,47.90
2023-09-05T16:51:30.441Z,48.30
2023-09-05T16:53:58.957Z,48.60
2023-09-05T16:56:26.984Z,49.00
2023-09-05T16:58:56.809Z,49.10
2023-09-05T17:01:27.689Z,49.60
2023-09-05T17:03:58.863Z,49.70
2023-09-05T17:06:27.005Z,49.70
2023-09-05T17:08:55.598Z,50.10
2023-09-05T17:11:23.568Z,50.60
2023-09-05T17:13:51.504Z,50.90
2023-09-05T17:16:19.568Z,50.90
2023-09-05T17:18:47.582Z,50.80
2023-09-05T17:21:17.885Z,50.90
2023-09-05T17:23:45.942Z,51.70
2023-09-05T17:26:14.285Z,50.90
2023-09-05T17:28:42.420Z,51.20
2023-09-05T17:31:11.188Z,51.20
2023-09-05T17:33:39.285Z,52.70
2023-09-05T17:36:11.584Z,51.30
2023-09-05T17:38:41.217Z,51.60
2023-09-05T17:41:09.927Z,51.50
2023-09-05T17:43:38.283Z,51.50
2023-09-05T17:46:06.976Z,51.70
2023-09-05T17:48:35.619Z,52.50
2023-09-05T17:51:03.720Z,52.10
2023-09-05T17:53:33.286Z,52.10
2023-09-05T17:56:02.693Z,52.20
2023-09-05T17:58:30.992Z,52.40
2023-09-05T18:00:59.623Z,52.30
2023-09-05T18:03:28.137Z,53.10
2023-09-05T18:05:56.144Z,53.30
2023-09-05T18:08:24.105Z,53.70
2023-09-05T18:11:06.248Z,53.90
2023-09-05T18:13:34.593Z,54.80
2023-09-05T18:16:06.808Z,54.80
2023-09-05T18:18:38.165Z,56.10
2023-09-05T18:21:14.408Z,55.50
2023-09-05T18:23:42.386Z,55.80
2023-09-05T18:26:15.107Z,55.90
2023-09-05T18:28:43.811Z,56.40
2023-09-05T18:31:13.221Z,56.40
2023-09-05T18:33:42.754Z,56.30
2023-09-05T18:36:15.881Z,56.60
2023-09-05T18:38:47.469Z,56.80
2023-09-05T18:41:19.857Z,57.10
2023-09-05T18:43:50.991Z,57.30
2023-09-05T18:46:19.328Z,57.30
2023-09-05T18:48:49.234Z,57.30
2023-09-05T18:51:19.917Z,58.10
2023-09-05T18:53:50.427Z,59.20
2023-09-05T18:56:19.842Z,58.60
2023-09-05T18:58:47.842Z,59.00
2023-09-05T19:01:17.790Z,59.00
2023-09-05T19:03:47.892Z,59.30
2023-09-05T19:06:16.002Z,59.70
2023-09-05T19:08:44.995Z,59.90
2023-09-05T19:11:16.072Z,60.20
2023-09-05T19:13:46.518Z,60.60
2023-09-05T19:16:16.023Z,60.80
2023-09-05T19:18:44.143Z,60.80
2023-09-05T19:21:12.212Z,61.30
2023-09-05T19:23:40.137Z,61.50
2023-09-05T19:26:08.653Z,61.90
2023-09-05T19:28:36.983Z,62.40
2023-09-05T19:31:06.258Z,62.60
2023-09-05T19:33:34.278Z,63.10
2023-09-05T19:36:02.674Z,63.10
2023-09-05T19:38:30.677Z,63.40
2023-09-05T19:40:58.743Z,63.60
2023-09-05T19:43:26.957Z,63.90
2023-09-05T19:45:55.051Z,63.90
2023-09-05T19:48:24.471Z,64.00
2023-09-05T19:50:52.461Z,64.30
2023-09-05T19:53:22.029Z,64.60
2023-09-05T19:55:51.469Z,65.30
2023-09-05T19:58:19.505Z,64.70
2023-09-05T20:00:48.142Z,64.70
2023-09-05T20:03:16.316Z,65.00
2023-09-05T20:05:46.478Z,64.90
2023-09-05T20:08:15.947Z,65.20
2023-09-05T20:10:44.526Z,65.20
2023-09-05T20:13:12.434Z,65.30
2023-09-05T20:15:40.419Z,65.60
2023-09-05T20:18:10.981Z,66.00
2023-09-05T20:20:39.261Z,65.90
2023-09-05T20:23:08.921Z,66.20
2023-09-05T20:25:36.862Z,66.60
2023-09-05T20:28:05.360Z,66.60
2023-09-05T20:30:33.436Z,66.80
2023-09-05T20:33:01.426Z,66.90
2023-09-05T20:35:29.685Z,67.20
2023-09-05T20:37:57.706Z,67.50
2023-09-05T20:40:27.475Z,67.90
2023-09-05T20:42:55.964Z,68.30
2023-09-05T20:45:23.962Z,68.30
2023-09-05T20:47:53.584Z,68.60
2023-09-05T20:50:21.656Z,68.80
2023-09-05T20:52:49.591Z,68.80
2023-09-05T20:55:17.694Z,69.10
2023-09-05T20:57:47.028Z,69.20
2023-09-05T21:00:16.070Z,69.70
2023-09-05T21:02:44.256Z,70.00
2023-09-05T21:05:12.280Z,69.80
2023-09-05T21:07:40.263Z,70.10
2023-09-05T21:10:09.956Z,70.30
2023-09-05T21:12:38.030Z,70.50
2023-09-05T21:15:09.453Z,70.30
2023-09-05T21:17:37.566Z,71.00
2023-09-05T21:20:09.891Z,70.70
2023-09-05T21:22:38.251Z,71.10
2023-09-05T21:25:06.726Z,71.10
2023-09-05T21:27:34.929Z,71.20
2023-09-05T21:30:03.086Z,71.40
2023-09-05T21:32:32.451Z,71.50
2023-09-05T21:35:00.430Z,72.50
2023-09-05T21:37:30.533Z,72.40
2023-09-05T21:39:58.747Z,71.80
2023-09-05T21:42:26.790Z,72.30
2023-09-05T21:44:55.023Z,72.30
2023-09-05T21:47:23.105Z,72.50
2023-09-05T21:49:52.721Z,72.50
2023-09-05T21:52:21.050Z,72.80
2023-09-05T21:54:49.203Z,72.70
2023-09-05T21:57:17.256Z,72.60
2023-09-05T21:59:45.636Z,72.80
2023-09-05T22:02:13.795Z,72.80
2023-09-05T22:04:42.300Z,72.80
2023-09-05T22:07:12.369Z,73.10
2023-09-05T22:09:41.399Z,73.50
2023-09-05T22:12:10.451Z,73.40
2023-09-05T22:14:38.443Z,73.50
2023-09-05T22:17:06.757Z,73.50
2023-09-05T22:19:35.612Z,73.70
2023-09-05T22:22:05.625Z,73.70
2023-09-05T22:24:35.589Z,73.80
2023-09-05T22:27:04.959Z,74.20
2023-09-05T22:29:36.098Z,73.80
2023-09-05T22:32:04.201Z,74.10
2023-09-05T22:34:32.264Z,74.00
2023-09-05T22:37:00.951Z,74.20
2023-09-05T22:39:29.058Z,74.10
2023-09-05T22:42:00.530Z,74.30
2023-09-05T22:44:30.694Z,75.00
2023-09-05T22:46:58.696Z,74.40
2023-09-05T22:49:27.504Z,74.30
2023-09-05T22:51:55.464Z,74.50
2023-09-05T22:54:23.457Z,74.60
2023-09-05T22:56:51.378Z,74.50
2023-09-05T22:59:20.654Z,74.60
2023-09-05T23:01:48.644Z,74.90
2023-09-05T23:04:16.682Z,74.80
2023-09-05T23:06:44.895Z,75.00
2023-09-05T23:09:12.839Z,75.00
2023-09-05T23:11:41.427Z,75.10
2023-09-05T23:14:13.025Z,75.80
2023-09-05T23:16:42.554Z,75.50
2023-09-05T23:19:10.849Z,75.40
2023-09-05T23:21:41.139Z,75.30
2023-09-05T23:24:09.774Z,75.30
2023-09-05T23:26:39.257Z,75.30
2023-09-05T23:29:07.743Z,76.50
2023-09-05T23:31:35.817Z,76.20
2023-09-05T23:34:05.297Z,75.90
2023-09-05T23:36:33.709Z,75.80
2023-09-05T23:39:02.580Z,75.70
2023-09-05T23:41:31.422Z,75.50
2023-09-05T23:44:01.296Z,75.40
2023-09-05T23:46:29.412Z,75.20
2023-09-05T23:48:57.775Z,75.10
2023-09-05T23:51:29.512Z,75.70
2023-09-05T23:56:26.293Z,76.70
2023-09-05T23:58:54.258Z,76.00
